sensor_id;sensor_type;location;lat;lon;timestamp;temperature;humidity
19781;DHT22;10050;55.492;13.506;2024-02-23T00:01:36;7.20;99.90
19781;DHT22;10050;55.492;13.506;2024-02-23T00:04:02;7.20;99.90
19781;DHT22;10050;55.492;13.506;2024-02-23T00:06:28;7.20;99.90
19781;DHT22;10050;55.492;13.506;2024-02-23T00:08:54;7.20;99.90
19781;DHT22;10050;55.492;13.506;2024-02-23T00:11:23;7.20;99.90
19781;DHT22;10050;55.492;13.506;2024-02-23T00:13:49;7.20;99.90
19781;DHT22;10050;55.492;13.506;2024-02-23T00:16:15;7.20;99.90
19781;DHT22;10050;55.492;13.506;2024-02-23T00:18:41;7.10;99.90
19781;DHT22;10050;55.492;13.506;2024-02-23T00:21:06;7.10;99.90
19781;DHT22;10050;55.492;13.506;2024-02-23T00:23:32;7.10;99.90
19781;DHT22;10050;55.492;13.506;2024-02-23T00:25:57;7.10;99.90
19781;DHT22;10050;55.492;13.506;2024-02-23T00:28:23;7.10;99.90
19781;DHT22;10050;55.492;13.506;2024-02-23T00:30:49;7.10;99.90
19781;DHT22;10050;55.492;13.506;2024-02-23T00:33:14;7.20;99.90
19781;DHT22;10050;55.492;13.506;2024-02-23T00:35:40;7.30;99.90
19781;DHT22;10050;55.492;13.506;2024-02-23T00:38:06;7.30;99.90
19781;DHT22;10050;55.492;13.506;2024-02-23T00:40:33;7.30;99.90
19781;DHT22;10050;55.492;13.506;2024-02-23T00:42:59;7.30;99.90
19781;DHT22;10050;55.492;13.506;2024-02-23T00:45:26;7.30;99.90
19781;DHT22;10050;55.492;13.506;2024-02-23T00:47:52;7.30;99.90
19781;DHT22;10050;55.492;13.506;2024-02-23T00:50:17;7.30;99.90
19781;DHT22;10050;55.492;13.506;2024-02-23T00:52:45;7.30;99.90
19781;DHT22;10050;55.492;13.506;2024-02-23T00:55:11;7.30;99.90
19781;DHT22;10050;55.492;13.506;2024-02-23T00:57:38;7.40;99.90
19781;DHT22;10050;55.492;13.506;2024-02-23T01:00:04;7.30;99.90
19781;DHT22;10050;55.492;13.506;2024-02-23T01:02:34;7.40;99.90
19781;DHT22;10050;55.492;13.506;2024-02-23T01:05:00;7.40;99.90
19781;DHT22;10050;55.492;13.506;2024-02-23T01:07:26;7.30;99.90
19781;DHT22;10050;55.492;13.506;2024-02-23T01:09:51;7.30;99.90
19781;DHT22;10050;55.492;13.506;2024-02-23T01:12:17;7.30;99.90
19781;DHT22;10050;55.492;13.506;2024-02-23T01:14:43;7.30;99.90
19781;DHT22;10050;55.492;13.506;2024-02-23T01:17:08;7.30;99.90
19781;DHT22;10050;55.492;13.506;2024-02-23T01:19:34;7.30;99.90
19781;DHT22;10050;55.492;13.506;2024-02-23T01:22:00;7.40;99.90
19781;DHT22;10050;55.492;13.506;2024-02-23T01:24:26;7.40;99.90
19781;DHT22;10050;55.492;13.506;2024-02-23T01:26:56;7.50;99.90
19781;DHT22;10050;55.492;13.506;2024-02-23T01:29:22;7.50;99.90
19781;DHT22;10050;55.492;13.506;2024-02-23T01:31:48;7.50;99.90
19781;DHT22;10050;55.492;13.506;2024-02-23T01:34:14;7.50;99.90
19781;DHT22;10050;55.492;13.506;2024-02-23T01:36:40;7.50;99.90
19781;DHT22;10050;55.492;13.506;2024-02-23T01:39:06;7.60;99.90
19781;DHT22;10050;55.492;13.506;2024-02-23T01:41:32;7.60;99.90
19781;DHT22;10050;55.492;13.506;2024-02-23T01:43:58;7.60;99.90
19781;DHT22;10050;55.492;13.506;2024-02-23T01:46:24;7.70;99.90
19781;DHT22;10050;55.492;13.506;2024-02-23T01:48:49;7.70;99.90
19781;DHT22;10050;55.492;13.506;2024-02-23T01:51:16;7.70;99.90
19781;DHT22;10050;55.492;13.506;2024-02-23T01:53:41;7.70;99.90
19781;DHT22;10050;55.492;13.506;2024-02-23T01:56:08;7.70;99.90
19781;DHT22;10050;55.492;13.506;2024-02-23T01:58:35;7.70;99.90
19781;DHT22;10050;55.492;13.506;2024-02-23T02:01:01;7.70;99.90
19781;DHT22;10050;55.492;13.506;2024-02-23T02:03:27;7.80;99.90
19781;DHT22;10050;55.492;13.506;2024-02-23T02:05:53;7.80;99.90
19781;DHT22;10050;55.492;13.506;2024-02-23T02:08:20;7.70;99.90
19781;DHT22;10050;55.492;13.506;2024-02-23T02:10:46;7.70;99.90
19781;DHT22;10050;55.492;13.506;2024-02-23T02:13:12;7.70;99.90
19781;DHT22;10050;55.492;13.506;2024-02-23T02:15:38;7.70;99.90
19781;DHT22;10050;55.492;13.506;2024-02-23T02:18:04;7.80;99.90
19781;DHT22;10050;55.492;13.506;2024-02-23T02:20:33;7.90;99.90
19781;DHT22;10050;55.492;13.506;2024-02-23T02:22:59;7.90;99.90
19781;DHT22;10050;55.492;13.506;2024-02-23T02:25:25;8.00;99.90
19781;DHT22;10050;55.492;13.506;2024-02-23T02:27:51;8.10;99.90
19781;DHT22;10050;55.492;13.506;2024-02-23T02:30:16;8.10;99.90
19781;DHT22;10050;55.492;13.506;2024-02-23T02:32:42;8.10;99.90
19781;DHT22;10050;55.492;13.506;2024-02-23T02:35:10;8.10;99.90
19781;DHT22;10050;55.492;13.506;2024-02-23T02:37:35;8.10;99.90
19781;DHT22;10050;55.492;13.506;2024-02-23T02:40:01;8.10;99.90
19781;DHT22;10050;55.492;13.506;2024-02-23T02:42:28;8.10;99.90
19781;DHT22;10050;55.492;13.506;2024-02-23T02:44:54;8.00;99.90
19781;DHT22;10050;55.492;13.506;2024-02-23T02:47:19;8.00;99.90
19781;DHT22;10050;55.492;13.506;2024-02-23T02:49:45;8.00;99.90
19781;DHT22;10050;55.492;13.506;2024-02-23T02:52:10;7.90;99.90
19781;DHT22;10050;55.492;13.506;2024-02-23T02:54:36;7.90;99.90
19781;DHT22;10050;55.492;13.506;2024-02-23T02:57:02;7.90;99.90
19781;DHT22;10050;55.492;13.506;2024-02-23T02:59:27;7.90;99.90
19781;DHT22;10050;55.492;13.506;2024-02-23T03:01:53;7.80;99.90
19781;DHT22;10050;55.492;13.506;2024-02-23T03:04:19;7.70;99.90
19781;DHT22;10050;55.492;13.506;2024-02-23T03:06:45;7.70;99.90
19781;DHT22;10050;55.492;13.506;2024-02-23T03:09:10;7.60;99.90
19781;DHT22;10050;55.492;13.506;2024-02-23T03:11:36;7.50;99.90
19781;DHT22;10050;55.492;13.506;2024-02-23T03:14:02;7.50;99.90
19781;DHT22;10050;55.492;13.506;2024-02-23T03:16:28;7.40;99.90
19781;DHT22;10050;55.492;13.506;2024-02-23T03:18:56;7.40;99.90
19781;DHT22;10050;55.492;13.506;2024-02-23T03:21:22;7.40;99.90
19781;DHT22;10050;55.492;13.506;2024-02-23T03:23:47;7.30;99.90
19781;DHT22;10050;55.492;13.506;2024-02-23T03:26:14;7.20;99.90
19781;DHT22;10050;55.492;13.506;2024-02-23T03:28:42;7.20;99.90
19781;DHT22;10050;55.492;13.506;2024-02-23T03:31:08;7.20;99.90
19781;DHT22;10050;55.492;13.506;2024-02-23T03:33:33;7.20;99.90
19781;DHT22;10050;55.492;13.506;2024-02-23T03:35:59;7.30;99.90
19781;DHT22;10050;55.492;13.506;2024-02-23T03:38:25;7.30;99.90
19781;DHT22;10050;55.492;13.506;2024-02-23T03:40:50;7.30;99.90
19781;DHT22;10050;55.492;13.506;2024-02-23T03:43:16;7.20;99.90
19781;DHT22;10050;55.492;13.506;2024-02-23T03:45:42;7.20;99.90
19781;DHT22;10050;55.492;13.506;2024-02-23T03:48:07;7.10;99.90
19781;DHT22;10050;55.492;13.506;2024-02-23T03:50:33;7.10;99.90
19781;DHT22;10050;55.492;13.506;2024-02-23T03:52:59;7.00;99.90
19781;DHT22;10050;55.492;13.506;2024-02-23T03:55:24;7.00;99.90
19781;DHT22;10050;55.492;13.506;2024-02-23T03:57:50;6.90;99.90
19781;DHT22;10050;55.492;13.506;2024-02-23T04:00:16;6.90;99.90
19781;DHT22;10050;55.492;13.506;2024-02-23T04:02:42;6.80;99.90
19781;DHT22;10050;55.492;13.506;2024-02-23T04:05:08;6.70;99.90
19781;DHT22;10050;55.492;13.506;2024-02-23T04:07:33;6.70;99.90
19781;DHT22;10050;55.492;13.506;2024-02-23T04:09:59;6.60;99.90
19781;DHT22;10050;55.492;13.506;2024-02-23T04:12:25;6.60;99.90
19781;DHT22;10050;55.492;13.506;2024-02-23T04:14:50;6.60;99.90
19781;DHT22;10050;55.492;13.506;2024-02-23T04:17:16;6.50;99.90
19781;DHT22;10050;55.492;13.506;2024-02-23T04:19:42;6.50;99.90
19781;DHT22;10050;55.492;13.506;2024-02-23T04:22:09;6.40;99.90
19781;DHT22;10050;55.492;13.506;2024-02-23T04:24:41;6.50;99.90
19781;DHT22;10050;55.492;13.506;2024-02-23T04:27:07;6.40;99.90
19781;DHT22;10050;55.492;13.506;2024-02-23T04:29:33;6.40;99.90
19781;DHT22;10050;55.492;13.506;2024-02-23T04:32:02;6.30;99.90
19781;DHT22;10050;55.492;13.506;2024-02-23T04:34:28;6.30;99.90
19781;DHT22;10050;55.492;13.506;2024-02-23T04:36:54;6.20;99.90
19781;DHT22;10050;55.492;13.506;2024-02-23T04:39:22;6.20;99.90
19781;DHT22;10050;55.492;13.506;2024-02-23T04:41:48;6.20;99.90
19781;DHT22;10050;55.492;13.506;2024-02-23T04:44:13;6.20;99.90
19781;DHT22;10050;55.492;13.506;2024-02-23T04:46:39;6.10;99.90
19781;DHT22;10050;55.492;13.506;2024-02-23T04:49:04;6.10;99.90
19781;DHT22;10050;55.492;13.506;2024-02-23T04:51:30;6.10;99.90
19781;DHT22;10050;55.492;13.506;2024-02-23T04:53:56;6.10;99.90
19781;DHT22;10050;55.492;13.506;2024-02-23T04:56:21;6.10;99.90
19781;DHT22;10050;55.492;13.506;2024-02-23T04:58:47;6.20;99.90
19781;DHT22;10050;55.492;13.506;2024-02-23T05:01:12;6.20;99.90
19781;DHT22;10050;55.492;13.506;2024-02-23T05:03:38;6.20;99.90
19781;DHT22;10050;55.492;13.506;2024-02-23T05:06:04;6.20;99.90
19781;DHT22;10050;55.492;13.506;2024-02-23T05:08:30;6.20;99.90
19781;DHT22;10050;55.492;13.506;2024-02-23T05:10:57;6.10;99.90
19781;DHT22;10050;55.492;13.506;2024-02-23T05:13:23;6.20;99.90
19781;DHT22;10050;55.492;13.506;2024-02-23T05:15:48;6.10;99.90
19781;DHT22;10050;55.492;13.506;2024-02-23T05:18:14;6.10;99.90
19781;DHT22;10050;55.492;13.506;2024-02-23T05:20:40;6.10;99.90
19781;DHT22;10050;55.492;13.506;2024-02-23T05:23:05;6.10;99.90
19781;DHT22;10050;55.492;13.506;2024-02-23T05:25:31;6.00;99.90
19781;DHT22;10050;55.492;13.506;2024-02-23T05:27:57;6.00;99.90
19781;DHT22;10050;55.492;13.506;2024-02-23T05:30:22;5.90;99.90
19781;DHT22;10050;55.492;13.506;2024-02-23T05:32:48;5.90;99.90
19781;DHT22;10050;55.492;13.506;2024-02-23T05:35:14;5.90;99.90
19781;DHT22;10050;55.492;13.506;2024-02-23T05:37:41;5.80;99.90
19781;DHT22;10050;55.492;13.506;2024-02-23T05:40:07;5.70;99.90
19781;DHT22;10050;55.492;13.506;2024-02-23T05:42:38;5.70;99.90
19781;DHT22;10050;55.492;13.506;2024-02-23T05:45:06;5.70;99.90
19781;DHT22;10050;55.492;13.506;2024-02-23T05:47:37;5.60;99.90
19781;DHT22;10050;55.492;13.506;2024-02-23T05:50:04;5.60;99.90
19781;DHT22;10050;55.492;13.506;2024-02-23T05:52:31;5.60;99.90
19781;DHT22;10050;55.492;13.506;2024-02-23T05:54:57;5.50;99.90
19781;DHT22;10050;55.492;13.506;2024-02-23T05:57:26;5.50;99.90
19781;DHT22;10050;55.492;13.506;2024-02-23T05:59:52;5.50;99.90
19781;DHT22;10050;55.492;13.506;2024-02-23T06:02:17;5.40;99.90
19781;DHT22;10050;55.492;13.506;2024-02-23T06:04:43;5.40;99.90
19781;DHT22;10050;55.492;13.506;2024-02-23T06:07:09;5.40;99.90
19781;DHT22;10050;55.492;13.506;2024-02-23T06:09:34;5.40;99.90
19781;DHT22;10050;55.492;13.506;2024-02-23T06:12:00;5.40;99.90
19781;DHT22;10050;55.492;13.506;2024-02-23T06:14:26;5.40;99.90
19781;DHT22;10050;55.492;13.506;2024-02-23T06:16:51;5.40;99.90
19781;DHT22;10050;55.492;13.506;2024-02-23T06:19:17;5.40;99.90
19781;DHT22;10050;55.492;13.506;2024-02-23T06:21:42;5.30;99.90
19781;DHT22;10050;55.492;13.506;2024-02-23T06:24:08;5.40;99.90
19781;DHT22;10050;55.492;13.506;2024-02-23T06:26:34;5.40;99.90
19781;DHT22;10050;55.492;13.506;2024-02-23T06:29:01;5.40;99.90
19781;DHT22;10050;55.492;13.506;2024-02-23T06:31:26;5.40;99.90
19781;DHT22;10050;55.492;13.506;2024-02-23T06:33:52;5.40;99.90
19781;DHT22;10050;55.492;13.506;2024-02-23T06:36:18;5.40;99.90
19781;DHT22;10050;55.492;13.506;2024-02-23T06:38:44;5.40;99.90
19781;DHT22;10050;55.492;13.506;2024-02-23T06:41:11;5.40;99.90
19781;DHT22;10050;55.492;13.506;2024-02-23T06:43:37;5.60;99.90
19781;DHT22;10050;55.492;13.506;2024-02-23T06:46:09;5.80;99.90
19781;DHT22;10050;55.492;13.506;2024-02-23T06:48:36;6.00;99.90
19781;DHT22;10050;55.492;13.506;2024-02-23T06:51:05;6.10;99.90
19781;DHT22;10050;55.492;13.506;2024-02-23T06:53:34;6.30;99.90
19781;DHT22;10050;55.492;13.506;2024-02-23T06:56:00;6.40;99.90
19781;DHT22;10050;55.492;13.506;2024-02-23T06:58:26;6.80;99.90
19781;DHT22;10050;55.492;13.506;2024-02-23T07:00:52;6.80;99.90
19781;DHT22;10050;55.492;13.506;2024-02-23T07:03:17;7.10;99.90
19781;DHT22;10050;55.492;13.506;2024-02-23T07:05:43;7.10;99.90
19781;DHT22;10050;55.492;13.506;2024-02-23T07:08:10;7.00;99.90
19781;DHT22;10050;55.492;13.506;2024-02-23T07:10:36;7.70;99.90
19781;DHT22;10050;55.492;13.506;2024-02-23T07:13:02;8.40;99.90
19781;DHT22;10050;55.492;13.506;2024-02-23T07:15:27;9.50;99.90
19781;DHT22;10050;55.492;13.506;2024-02-23T07:17:53;10.40;99.90
19781;DHT22;10050;55.492;13.506;2024-02-23T07:20:19;11.30;99.90
19781;DHT22;10050;55.492;13.506;2024-02-23T07:22:45;11.90;99.90
19781;DHT22;10050;55.492;13.506;2024-02-23T07:25:11;12.20;99.90
19781;DHT22;10050;55.492;13.506;2024-02-23T07:27:37;12.10;99.90
19781;DHT22;10050;55.492;13.506;2024-02-23T07:30:09;11.40;99.90
19781;DHT22;10050;55.492;13.506;2024-02-23T07:32:35;10.00;99.90
19781;DHT22;10050;55.492;13.506;2024-02-23T07:35:00;8.80;99.90
19781;DHT22;10050;55.492;13.506;2024-02-23T07:37:26;8.00;99.90
19781;DHT22;10050;55.492;13.506;2024-02-23T07:39:52;7.50;99.90
19781;DHT22;10050;55.492;13.506;2024-02-23T07:42:18;7.20;99.90
19781;DHT22;10050;55.492;13.506;2024-02-23T07:44:47;7.00;99.90
19781;DHT22;10050;55.492;13.506;2024-02-23T07:47:13;6.90;99.90
19781;DHT22;10050;55.492;13.506;2024-02-23T07:49:38;7.00;99.90
19781;DHT22;10050;55.492;13.506;2024-02-23T07:52:06;6.90;99.90
19781;DHT22;10050;55.492;13.506;2024-02-23T07:54:32;7.00;99.90
19781;DHT22;10050;55.492;13.506;2024-02-23T07:56:58;8.10;99.90
19781;DHT22;10050;55.492;13.506;2024-02-23T07:59:24;9.70;99.90
19781;DHT22;10050;55.492;13.506;2024-02-23T08:01:50;10.90;99.90
19781;DHT22;10050;55.492;13.506;2024-02-23T08:04:16;11.50;99.90
19781;DHT22;10050;55.492;13.506;2024-02-23T08:06:41;11.60;99.90
19781;DHT22;10050;55.492;13.506;2024-02-23T08:09:08;11.50;99.90
19781;DHT22;10050;55.492;13.506;2024-02-23T08:11:34;12.00;99.90
19781;DHT22;10050;55.492;13.506;2024-02-23T08:13:59;12.00;99.90
19781;DHT22;10050;55.492;13.506;2024-02-23T08:16:25;12.10;99.90
19781;DHT22;10050;55.492;13.506;2024-02-23T08:18:51;12.90;99.90
19781;DHT22;10050;55.492;13.506;2024-02-23T08:21:16;13.10;99.90
19781;DHT22;10050;55.492;13.506;2024-02-23T08:23:43;12.90;99.90
19781;DHT22;10050;55.492;13.506;2024-02-23T08:26:09;12.60;99.90
19781;DHT22;10050;55.492;13.506;2024-02-23T08:28:35;12.80;99.90
19781;DHT22;10050;55.492;13.506;2024-02-23T08:31:01;13.30;99.90
19781;DHT22;10050;55.492;13.506;2024-02-23T08:33:27;13.10;99.90
19781;DHT22;10050;55.492;13.506;2024-02-23T08:35:52;13.00;99.90
19781;DHT22;10050;55.492;13.506;2024-02-23T08:38:21;12.80;99.90
19781;DHT22;10050;55.492;13.506;2024-02-23T08:40:47;12.40;99.90
19781;DHT22;10050;55.492;13.506;2024-02-23T08:43:13;12.70;99.90
19781;DHT22;10050;55.492;13.506;2024-02-23T08:45:39;12.50;99.90
19781;DHT22;10050;55.492;13.506;2024-02-23T08:48:05;12.50;99.90
19781;DHT22;10050;55.492;13.506;2024-02-23T08:50:32;12.20;99.90
19781;DHT22;10050;55.492;13.506;2024-02-23T08:52:57;11.90;99.90
19781;DHT22;10050;55.492;13.506;2024-02-23T08:55:23;12.20;99.90
19781;DHT22;10050;55.492;13.506;2024-02-23T08:57:49;12.90;99.90
19781;DHT22;10050;55.492;13.506;2024-02-23T09:00:15;12.60;99.90
19781;DHT22;10050;55.492;13.506;2024-02-23T09:02:41;11.80;99.90
19781;DHT22;10050;55.492;13.506;2024-02-23T09:05:09;11.00;99.90
19781;DHT22;10050;55.492;13.506;2024-02-23T09:07:35;10.90;99.90
19781;DHT22;10050;55.492;13.506;2024-02-23T09:10:01;10.20;99.90
19781;DHT22;10050;55.492;13.506;2024-02-23T09:12:27;9.60;99.90
19781;DHT22;10050;55.492;13.506;2024-02-23T09:14:53;8.90;99.90
19781;DHT22;10050;55.492;13.506;2024-02-23T09:17:19;9.10;99.90
19781;DHT22;10050;55.492;13.506;2024-02-23T09:19:46;9.30;99.90
19781;DHT22;10050;55.492;13.506;2024-02-23T09:22:12;9.20;99.90
19781;DHT22;10050;55.492;13.506;2024-02-23T09:24:41;8.60;99.90
19781;DHT22;10050;55.492;13.506;2024-02-23T09:27:06;8.40;99.90
19781;DHT22;10050;55.492;13.506;2024-02-23T09:29:32;9.10;99.90
19781;DHT22;10050;55.492;13.506;2024-02-23T09:31:58;9.00;99.90
19781;DHT22;10050;55.492;13.506;2024-02-23T09:34:24;8.90;99.90
19781;DHT22;10050;55.492;13.506;2024-02-23T09:36:50;9.20;99.90
19781;DHT22;10050;55.492;13.506;2024-02-23T09:39:16;9.80;99.90
19781;DHT22;10050;55.492;13.506;2024-02-23T09:41:42;10.10;99.90
19781;DHT22;10050;55.492;13.506;2024-02-23T09:44:09;10.50;99.90
19781;DHT22;10050;55.492;13.506;2024-02-23T09:46:36;10.70;99.90
19781;DHT22;10050;55.492;13.506;2024-02-23T09:49:03;11.10;99.90
19781;DHT22;10050;55.492;13.506;2024-02-23T09:51:29;10.30;99.90
19781;DHT22;10050;55.492;13.506;2024-02-23T09:53:57;9.50;99.90
19781;DHT22;10050;55.492;13.506;2024-02-23T09:56:27;9.50;99.90
19781;DHT22;10050;55.492;13.506;2024-02-23T09:58:54;9.80;99.90
19781;DHT22;10050;55.492;13.506;2024-02-23T10:01:29;10.30;99.90
19781;DHT22;10050;55.492;13.506;2024-02-23T10:03:57;10.50;99.90
19781;DHT22;10050;55.492;13.506;2024-02-23T10:06:26;10.30;99.90
19781;DHT22;10050;55.492;13.506;2024-02-23T10:08:53;9.80;99.90
19781;DHT22;10050;55.492;13.506;2024-02-23T10:11:23;9.30;99.90
19781;DHT22;10050;55.492;13.506;2024-02-23T10:13:49;9.20;99.90
19781;DHT22;10050;55.492;13.506;2024-02-23T10:16:16;9.20;99.90
19781;DHT22;10050;55.492;13.506;2024-02-23T10:18:42;8.90;99.90
19781;DHT22;10050;55.492;13.506;2024-02-23T10:21:08;8.60;99.90
19781;DHT22;10050;55.492;13.506;2024-02-23T10:23:34;8.10;99.90
19781;DHT22;10050;55.492;13.506;2024-02-23T10:25:59;7.80;99.90
19781;DHT22;10050;55.492;13.506;2024-02-23T10:28:25;7.60;99.90
19781;DHT22;10050;55.492;13.506;2024-02-23T10:30:50;7.50;99.90
19781;DHT22;10050;55.492;13.506;2024-02-23T10:33:22;7.30;99.90
19781;DHT22;10050;55.492;13.506;2024-02-23T10:35:51;7.20;99.90
19781;DHT22;10050;55.492;13.506;2024-02-23T10:38:20;7.20;99.90
19781;DHT22;10050;55.492;13.506;2024-02-23T10:40:47;7.20;99.90
19781;DHT22;10050;55.492;13.506;2024-02-23T10:43:19;7.20;99.90
19781;DHT22;10050;55.492;13.506;2024-02-23T10:45:46;7.10;99.90
19781;DHT22;10050;55.492;13.506;2024-02-23T10:48:12;7.00;99.90
19781;DHT22;10050;55.492;13.506;2024-02-23T10:50:40;7.00;99.90
19781;DHT22;10050;55.492;13.506;2024-02-23T10:53:10;7.20;99.90
19781;DHT22;10050;55.492;13.506;2024-02-23T10:55:37;7.20;99.90
19781;DHT22;10050;55.492;13.506;2024-02-23T10:58:08;7.40;99.90
19781;DHT22;10050;55.492;13.506;2024-02-23T11:00:36;7.50;99.90
19781;DHT22;10050;55.492;13.506;2024-02-23T11:03:03;7.60;99.90
19781;DHT22;10050;55.492;13.506;2024-02-23T11:05:30;7.40;99.90
19781;DHT22;10050;55.492;13.506;2024-02-23T11:07:56;7.50;99.90
19781;DHT22;10050;55.492;13.506;2024-02-23T11:10:24;7.70;99.90
19781;DHT22;10050;55.492;13.506;2024-02-23T11:13:00;8.10;99.90
19781;DHT22;10050;55.492;13.506;2024-02-23T11:15:31;8.30;99.90
19781;DHT22;10050;55.492;13.506;2024-02-23T11:18:20;8.50;99.90
19781;DHT22;10050;55.492;13.506;2024-02-23T11:20:58;8.60;99.90
19781;DHT22;10050;55.492;13.506;2024-02-23T11:23:24;8.40;99.90
19781;DHT22;10050;55.492;13.506;2024-02-23T11:28:28;8.30;99.90
19781;DHT22;10050;55.492;13.506;2024-02-23T11:30:54;8.30;99.90
19781;DHT22;10050;55.492;13.506;2024-02-23T11:33:26;8.30;99.90
19781;DHT22;10050;55.492;13.506;2024-02-23T11:35:52;8.30;99.90
19781;DHT22;10050;55.492;13.506;2024-02-23T11:38:19;8.60;99.90
19781;DHT22;10050;55.492;13.506;2024-02-23T11:40:49;8.90;99.90
19781;DHT22;10050;55.492;13.506;2024-02-23T11:43:16;8.90;99.90
19781;DHT22;10050;55.492;13.506;2024-02-23T11:45:42;8.90;99.90
19781;DHT22;10050;55.492;13.506;2024-02-23T11:48:08;8.80;99.90
19781;DHT22;10050;55.492;13.506;2024-02-23T11:50:33;8.80;99.90
19781;DHT22;10050;55.492;13.506;2024-02-23T11:52:59;8.80;99.90
19781;DHT22;10050;55.492;13.506;2024-02-23T11:55:26;8.90;99.90
19781;DHT22;10050;55.492;13.506;2024-02-23T11:57:52;8.80;99.90
19781;DHT22;10050;55.492;13.506;2024-02-23T12:00:18;8.90;99.90
19781;DHT22;10050;55.492;13.506;2024-02-23T12:02:44;8.70;99.90
19781;DHT22;10050;55.492;13.506;2024-02-23T12:05:15;8.80;99.90
19781;DHT22;10050;55.492;13.506;2024-02-23T12:07:41;8.70;99.90
19781;DHT22;10050;55.492;13.506;2024-02-23T12:10:08;8.70;99.90
19781;DHT22;10050;55.492;13.506;2024-02-23T12:12:34;8.60;99.90
19781;DHT22;10050;55.492;13.506;2024-02-23T12:15:00;8.50;99.90
19781;DHT22;10050;55.492;13.506;2024-02-23T12:17:25;8.70;99.90
19781;DHT22;10050;55.492;13.506;2024-02-23T12:20:02;8.90;99.90
19781;DHT22;10050;55.492;13.506;2024-02-23T12:22:28;9.00;99.90
19781;DHT22;10050;55.492;13.506;2024-02-23T12:24:57;8.60;99.90
19781;DHT22;10050;55.492;13.506;2024-02-23T12:27:22;8.50;99.90
19781;DHT22;10050;55.492;13.506;2024-02-23T12:29:53;8.40;99.90
19781;DHT22;10050;55.492;13.506;2024-02-23T12:32:22;8.20;99.90
19781;DHT22;10050;55.492;13.506;2024-02-23T12:34:48;8.40;99.90
19781;DHT22;10050;55.492;13.506;2024-02-23T12:37:15;8.60;99.90
19781;DHT22;10050;55.492;13.506;2024-02-23T12:39:41;8.70;99.90
19781;DHT22;10050;55.492;13.506;2024-02-23T12:42:08;8.40;99.90
19781;DHT22;10050;55.492;13.506;2024-02-23T12:44:33;8.10;99.90
19781;DHT22;10050;55.492;13.506;2024-02-23T12:46:59;8.10;99.90
19781;DHT22;10050;55.492;13.506;2024-02-23T12:49:24;8.40;99.90
19781;DHT22;10050;55.492;13.506;2024-02-23T12:51:50;8.70;99.90
19781;DHT22;10050;55.492;13.506;2024-02-23T12:54:16;8.60;99.90
19781;DHT22;10050;55.492;13.506;2024-02-23T12:56:42;8.50;99.90
19781;DHT22;10050;55.492;13.506;2024-02-23T12:59:08;8.50;99.90
19781;DHT22;10050;55.492;13.506;2024-02-23T13:01:35;8.60;99.90
19781;DHT22;10050;55.492;13.506;2024-02-23T13:04:03;8.70;99.90
19781;DHT22;10050;55.492;13.506;2024-02-23T13:06:37;8.70;99.90
19781;DHT22;10050;55.492;13.506;2024-02-23T13:09:04;8.70;99.90
19781;DHT22;10050;55.492;13.506;2024-02-23T13:11:30;8.70;99.90
19781;DHT22;10050;55.492;13.506;2024-02-23T13:13:56;8.70;99.90
19781;DHT22;10050;55.492;13.506;2024-02-23T13:16:21;8.80;99.90
19781;DHT22;10050;55.492;13.506;2024-02-23T13:18:47;8.70;99.90
19781;DHT22;10050;55.492;13.506;2024-02-23T13:21:13;8.70;99.90
19781;DHT22;10050;55.492;13.506;2024-02-23T13:23:39;8.80;99.90
19781;DHT22;10050;55.492;13.506;2024-02-23T13:26:05;8.90;99.90
19781;DHT22;10050;55.492;13.506;2024-02-23T13:28:31;8.90;99.90
19781;DHT22;10050;55.492;13.506;2024-02-23T13:30:57;8.90;99.90
19781;DHT22;10050;55.492;13.506;2024-02-23T13:33:22;8.90;99.90
19781;DHT22;10050;55.492;13.506;2024-02-23T13:35:49;8.90;99.90
19781;DHT22;10050;55.492;13.506;2024-02-23T13:38:15;8.80;99.90
19781;DHT22;10050;55.492;13.506;2024-02-23T13:40:40;8.80;99.90
19781;DHT22;10050;55.492;13.506;2024-02-23T13:43:06;8.80;99.90
19781;DHT22;10050;55.492;13.506;2024-02-23T13:45:32;8.80;99.90
19781;DHT22;10050;55.492;13.506;2024-02-23T13:47:59;8.80;99.90
19781;DHT22;10050;55.492;13.506;2024-02-23T13:50:26;8.70;99.90
19781;DHT22;10050;55.492;13.506;2024-02-23T13:52:51;8.70;99.90
19781;DHT22;10050;55.492;13.506;2024-02-23T13:55:18;8.70;99.90
19781;DHT22;10050;55.492;13.506;2024-02-23T13:57:46;8.70;99.90
19781;DHT22;10050;55.492;13.506;2024-02-23T14:00:13;8.80;99.90
19781;DHT22;10050;55.492;13.506;2024-02-23T14:02:39;8.80;99.90
19781;DHT22;10050;55.492;13.506;2024-02-23T14:05:07;8.70;99.90
19781;DHT22;10050;55.492;13.506;2024-02-23T14:07:36;8.60;99.90
19781;DHT22;10050;55.492;13.506;2024-02-23T14:10:02;8.70;99.90
19781;DHT22;10050;55.492;13.506;2024-02-23T14:12:29;8.50;99.90
19781;DHT22;10050;55.492;13.506;2024-02-23T14:14:55;8.40;99.90
19781;DHT22;10050;55.492;13.506;2024-02-23T14:17:20;8.40;99.90
19781;DHT22;10050;55.492;13.506;2024-02-23T14:19:46;8.50;99.90
19781;DHT22;10050;55.492;13.506;2024-02-23T14:22:12;8.50;99.90
19781;DHT22;10050;55.492;13.506;2024-02-23T14:24:38;8.40;99.90
19781;DHT22;10050;55.492;13.506;2024-02-23T14:27:03;8.40;99.90
19781;DHT22;10050;55.492;13.506;2024-02-23T14:29:29;8.40;99.90
19781;DHT22;10050;55.492;13.506;2024-02-23T14:31:55;8.30;99.90
19781;DHT22;10050;55.492;13.506;2024-02-23T14:34:21;8.30;99.90
19781;DHT22;10050;55.492;13.506;2024-02-23T14:36:49;8.20;99.90
19781;DHT22;10050;55.492;13.506;2024-02-23T14:39:14;8.10;99.90
19781;DHT22;10050;55.492;13.506;2024-02-23T14:41:40;8.10;99.90
19781;DHT22;10050;55.492;13.506;2024-02-23T14:44:06;8.00;99.90
19781;DHT22;10050;55.492;13.506;2024-02-23T14:46:32;8.00;99.90
19781;DHT22;10050;55.492;13.506;2024-02-23T14:48:57;8.00;99.90
19781;DHT22;10050;55.492;13.506;2024-02-23T14:51:23;8.00;99.90
19781;DHT22;10050;55.492;13.506;2024-02-23T14:53:49;7.90;99.90
19781;DHT22;10050;55.492;13.506;2024-02-23T14:56:14;7.90;99.90
19781;DHT22;10050;55.492;13.506;2024-02-23T14:58:40;7.80;99.90
19781;DHT22;10050;55.492;13.506;2024-02-23T15:01:06;7.80;99.90
19781;DHT22;10050;55.492;13.506;2024-02-23T15:03:32;7.80;99.90
19781;DHT22;10050;55.492;13.506;2024-02-23T15:05:58;7.70;99.90
19781;DHT22;10050;55.492;13.506;2024-02-23T15:08:24;7.70;99.90
19781;DHT22;10050;55.492;13.506;2024-02-23T15:10:50;7.70;99.90
19781;DHT22;10050;55.492;13.506;2024-02-23T15:13:17;7.60;99.90
19781;DHT22;10050;55.492;13.506;2024-02-23T15:15:43;7.60;99.90
19781;DHT22;10050;55.492;13.506;2024-02-23T15:18:08;7.60;99.90
19781;DHT22;10050;55.492;13.506;2024-02-23T15:20:34;7.60;99.90
19781;DHT22;10050;55.492;13.506;2024-02-23T15:23:00;7.60;99.90
19781;DHT22;10050;55.492;13.506;2024-02-23T15:25:27;7.50;99.90
19781;DHT22;10050;55.492;13.506;2024-02-23T15:27:53;7.50;99.90